createdAt,value
2022-11-17T00:01:08.625Z,9.45
2022-11-17T00:05:59.625Z,9.48
2022-11-17T00:10:50.255Z,9.51
2022-11-17T00:15:45.806Z,9.48
2022-11-17T00:20:51.237Z,9.45
2022-11-17T00:25:41.759Z,9.49
2022-11-17T00:30:46.598Z,9.54
2022-11-17T00:35:40.014Z,9.56
2022-11-17T00:40:30.740Z,9.59
2022-11-17T00:45:21.433Z,9.63
2022-11-17T00:50:12.348Z,9.63
2022-11-17T00:55:05.990Z,9.68
2022-11-17T00:59:56.664Z,9.74
2022-11-17T01:04:47.273Z,9.75
2022-11-17T01:09:39.826Z,9.80
2022-11-17T01:14:33.826Z,9.84
2022-11-17T01:19:26.431Z,9.91
2022-11-17T01:24:20.010Z,9.90
2022-11-17T01:29:14.554Z,9.90
2022-11-17T01:34:07.539Z,9.92
2022-11-17T01:38:58.016Z,9.96
2022-11-17T01:43:50.663Z,9.97
2022-11-17T01:48:41.480Z,10.01
2022-11-17T01:53:35.885Z,10.03
2022-11-17T01:58:34.791Z,10.03
2022-11-17T02:03:28.053Z,10.04
2022-11-17T02:08:23.014Z,10.04
2022-11-17T02:13:19.120Z,10.04
2022-11-17T02:18:10.115Z,10.05
2022-11-17T02:23:14.942Z,10.03
2022-11-17T02:28:15.932Z,10.04
2022-11-17T02:33:08.881Z,10.06
2022-11-17T02:38:05.778Z,10.08
2022-11-17T02:43:12.697Z,10.06
2022-11-17T02:48:09.281Z,10.01
2022-11-17T02:53:00.295Z,9.95
2022-11-17T02:57:50.785Z,9.98
2022-11-17T03:02:58.663Z,9.91
2022-11-17T03:08:02.040Z,9.92
2022-11-17T03:12:59.178Z,9.94
2022-11-17T03:17:53.593Z,9.93
2022-11-17T03:22:46.945Z,9.94
2022-11-17T03:27:41.372Z,9.95
2022-11-17T03:32:46.650Z,9.97
2022-11-17T03:37:42.123Z,10.06
2022-11-17T03:42:34.472Z,10.11
2022-11-17T03:47:29.531Z,10.15
2022-11-17T03:52:20.557Z,10.18
2022-11-17T03:57:16.206Z,10.19
2022-11-17T04:02:06.481Z,10.21
2022-11-17T04:07:02.928Z,10.18
2022-11-17T04:12:08.447Z,10.17
2022-11-17T04:17:00.849Z,10.13
2022-11-17T04:21:51.582Z,10.12
2022-11-17T04:26:56.950Z,10.08
2022-11-17T04:31:48.695Z,10.07
2022-11-17T04:36:41.306Z,10.06
2022-11-17T04:41:44.734Z,10.07
2022-11-17T04:46:38.389Z,10.08
2022-11-17T04:51:29.012Z,10.08
2022-11-17T04:56:19.981Z,10.13
2022-11-17T05:01:21.432Z,10.16
2022-11-17T05:06:15.316Z,10.16
2022-11-17T05:11:18.066Z,10.18
2022-11-17T05:16:21.263Z,10.19
2022-11-17T05:21:16.876Z,10.23
2022-11-17T05:26:07.903Z,10.25
2022-11-17T05:30:58.181Z,10.26
2022-11-17T05:35:48.503Z,10.26
2022-11-17T05:40:42.062Z,10.27
2022-11-17T05:45:32.703Z,10.29
2022-11-17T05:50:22.998Z,10.32
2022-11-17T05:55:14.142Z,10.34
2022-11-17T06:00:09.936Z,10.40
2022-11-17T06:05:07.388Z,10.40
2022-11-17T06:09:58.639Z,10.40
2022-11-17T06:14:53.866Z,10.32
2022-11-17T06:19:50.947Z,10.30
2022-11-17T06:24:43.242Z,10.29
2022-11-17T06:29:38.180Z,10.21
2022-11-17T06:34:32.835Z,10.16
2022-11-17T06:39:28.488Z,10.10
2022-11-17T06:44:20.087Z,10.03
2022-11-17T06:49:11.497Z,10.01
2022-11-17T06:54:02.327Z,9.96
2022-11-17T06:58:57.942Z,9.92
2022-11-17T07:03:48.798Z,9.89
2022-11-17T07:08:39.568Z,9.83
2022-11-17T07:13:29.849Z,9.79
2022-11-17T07:18:26.303Z,9.74
2022-11-17T07:23:17.418Z,9.70
2022-11-17T07:28:08.545Z,9.65
2022-11-17T07:33:01.511Z,9.60
2022-11-17T07:37:54.973Z,9.60
2022-11-17T07:42:45.508Z,9.61
2022-11-17T07:47:39.024Z,9.61
2022-11-17T07:52:29.754Z,9.64
2022-11-17T07:57:22.810Z,9.65
2022-11-17T08:02:14.983Z,9.65
2022-11-17T08:07:05.918Z,9.63
2022-11-17T08:11:58.379Z,9.65
2022-11-17T08:16:55.598Z,9.63
2022-11-17T08:21:46.374Z,9.64
2022-11-17T08:26:39.653Z,9.66
2022-11-17T08:31:30.501Z,9.67
2022-11-17T08:36:23.369Z,9.68
2022-11-17T08:41:13.731Z,9.72
2022-11-17T08:46:07.413Z,9.70
2022-11-17T08:51:00.839Z,9.67
2022-11-17T08:55:56.093Z,9.65
2022-11-17T09:00:47.766Z,9.60
2022-11-17T09:05:40.392Z,9.56
2022-11-17T09:10:30.783Z,9.54
2022-11-17T09:15:26.156Z,9.53
2022-11-17T09:20:17.301Z,9.54
2022-11-17T09:25:13.312Z,9.58
2022-11-17T09:30:08.167Z,9.58
2022-11-17T09:35:01.479Z,9.57
2022-11-17T09:39:52.132Z,9.55
2022-11-17T09:44:45.488Z,9.54
2022-11-17T09:49:44.627Z,9.52
2022-11-17T09:54:44.615Z,9.51
2022-11-17T09:59:36.108Z,9.51
2022-11-17T10:04:28.158Z,9.49
2022-11-17T10:09:25.748Z,9.49
2022-11-17T10:14:23.973Z,9.49
2022-11-17T10:19:20.867Z,9.52
2022-11-17T10:24:11.537Z,9.55
2022-11-17T10:29:10.726Z,9.58
2022-11-17T10:34:04.263Z,9.62
2022-11-17T10:38:56.617Z,9.67
2022-11-17T10:43:55.094Z,9.72
2022-11-17T10:48:58.559Z,9.71
2022-11-17T10:54:03.966Z,9.71
2022-11-17T10:58:59.502Z,9.74
2022-11-17T11:03:53.280Z,9.77
2022-11-17T11:08:58.033Z,9.80
2022-11-17T11:14:00.070Z,9.83
2022-11-17T11:18:53.018Z,9.88
2022-11-17T11:23:49.303Z,9.95
2022-11-17T11:28:54.383Z,10.00
2022-11-17T11:33:46.215Z,10.02
2022-11-17T11:38:50.109Z,10.03
2022-11-17T11:43:49.050Z,10.03
2022-11-17T11:48:39.965Z,10.03
2022-11-17T11:53:38.708Z,10.06
2022-11-17T11:58:29.552Z,10.09
2022-11-17T12:03:28.346Z,10.08
2022-11-17T12:08:22.702Z,10.06
2022-11-17T12:13:17.766Z,10.03
2022-11-17T12:18:17.338Z,10.05
2022-11-17T12:23:20.984Z,10.04
2022-11-17T12:28:32.377Z,10.07
2022-11-17T12:33:24.241Z,10.16
2022-11-17T12:38:30.151Z,10.19
2022-11-17T12:43:29.275Z,10.20
2022-11-17T12:48:38.335Z,10.21
2022-11-17T12:53:32.444Z,10.20
2022-11-17T12:58:34.360Z,10.20
2022-11-17T13:03:31.384Z,10.21
2022-11-17T13:08:29.727Z,10.29
2022-11-17T13:13:23.660Z,10.37
2022-11-17T13:18:19.995Z,10.51
2022-11-17T13:23:16.107Z,10.59
2022-11-17T13:28:06.535Z,10.61
2022-11-17T13:32:57.783Z,10.63
2022-11-17T13:38:04.961Z,10.65
2022-11-17T13:42:58.225Z,10.68
2022-11-17T13:47:54.208Z,10.71
2022-11-17T13:52:47.031Z,10.77
2022-11-17T13:57:43.713Z,10.79
2022-11-17T14:02:34.328Z,10.82
2022-11-17T14:07:36.174Z,10.85
2022-11-17T14:12:26.734Z,10.87
2022-11-17T14:17:23.215Z,10.84
2022-11-17T14:22:31.679Z,10.89
2022-11-17T14:27:39.712Z,10.90
2022-11-17T14:32:35.477Z,10.91
2022-11-17T14:37:28.316Z,10.95
2022-11-17T14:42:19.638Z,10.97
2022-11-17T14:47:10.454Z,10.96
2022-11-17T14:52:03.395Z,10.94
2022-11-17T14:56:58.224Z,10.94
2022-11-17T15:01:53.098Z,10.92
2022-11-17T15:07:02.921Z,10.89
2022-11-17T15:12:01.788Z,10.86
2022-11-17T15:16:54.975Z,10.84
2022-11-17T15:21:46.272Z,10.81
2022-11-17T15:26:43.168Z,10.79
2022-11-17T15:31:40.048Z,10.77
2022-11-17T15:36:30.286Z,10.74
2022-11-17T15:41:21.581Z,10.74
2022-11-17T15:46:13.255Z,10.78
2022-11-17T15:51:09.236Z,10.77
2022-11-17T15:56:05.382Z,10.70
2022-11-17T16:00:57.223Z,10.65
2022-11-17T16:05:52.355Z,10.64
2022-11-17T16:10:47.323Z,10.63
2022-11-17T16:15:40.562Z,10.60
2022-11-17T16:25:36.474Z,10.55
2022-11-17T16:30:35.507Z,10.56
2022-11-17T16:35:26.856Z,10.54
2022-11-17T16:40:18.841Z,10.52
2022-11-17T16:45:14.606Z,10.51
2022-11-17T16:50:10.096Z,10.50
2022-11-17T16:55:05.120Z,10.49
2022-11-17T16:59:56.087Z,10.46
2022-11-17T17:04:47.572Z,10.45
2022-11-17T17:09:44.122Z,10.44
2022-11-17T17:14:34.560Z,10.43
2022-11-17T17:19:30.589Z,10.37
2022-11-17T17:24:23.798Z,10.39
2022-11-17T17:29:19.806Z,10.38
2022-11-17T17:34:10.817Z,10.34
2022-11-17T17:39:02.091Z,10.30
2022-11-17T17:43:57.945Z,10.29
2022-11-17T17:48:51.524Z,10.28
2022-11-17T17:53:42.547Z,10.23
2022-11-17T17:58:40.932Z,10.21
2022-11-17T18:03:33.898Z,10.14
2022-11-17T18:08:27.704Z,10.10
2022-11-17T18:13:22.667Z,10.07
2022-11-17T18:18:19.127Z,10.04
2022-11-17T18:23:09.992Z,9.98
2022-11-17T18:28:04.341Z,9.96
2022-11-17T18:32:57.870Z,9.90
2022-11-17T18:37:52.788Z,9.85
2022-11-17T18:42:45.512Z,9.82
2022-11-17T18:47:39.721Z,9.81
2022-11-17T18:52:31.573Z,9.75
2022-11-17T18:57:28.330Z,9.70
2022-11-17T19:02:19.094Z,9.65
2022-11-17T19:07:13.397Z,9.64
2022-11-17T19:12:10.643Z,9.64
2022-11-17T19:17:01.791Z,9.62
2022-11-17T19:21:52.581Z,9.57
2022-11-17T19:26:49.770Z,9.56
2022-11-17T19:31:45.495Z,9.54
2022-11-17T19:36:40.480Z,9.52
2022-11-17T19:41:35.926Z,9.44
2022-11-17T19:46:30.948Z,9.39
2022-11-17T19:51:23.335Z,9.34
2022-11-17T19:56:15.126Z,9.33
2022-11-17T20:01:14.551Z,9.31
2022-11-17T20:06:14.447Z,9.30
2022-11-17T20:11:11.874Z,9.25
2022-11-17T20:16:08.834Z,9.24
2022-11-17T20:21:04.815Z,9.21
2022-11-17T20:25:57.927Z,9.20
2022-11-17T20:30:48.447Z,9.16
2022-11-17T20:35:41.709Z,9.13
2022-11-17T20:40:32.664Z,9.09
2022-11-17T20:45:32.016Z,9.05
2022-11-17T20:50:21.601Z,9.00
2022-11-17T20:55:14.046Z,8.96
2022-11-17T21:00:05.125Z,8.90
2022-11-17T21:04:58.249Z,8.85
2022-11-17T21:09:49.308Z,8.80
2022-11-17T21:14:40.464Z,8.76
2022-11-17T21:19:32.413Z,8.71
2022-11-17T21:24:28.011Z,8.66
2022-11-17T21:29:23.140Z,8.61
2022-11-17T21:34:17.740Z,8.56
2022-11-17T21:39:18.731Z,8.52
2022-11-17T21:44:14.954Z,8.47
2022-11-17T21:49:05.830Z,8.42
2022-11-17T21:53:57.835Z,8.39
2022-11-17T21:58:48.314Z,8.36
2022-11-17T22:03:42.335Z,8.34
2022-11-17T22:08:33.722Z,8.31
2022-11-17T22:13:24.015Z,8.27
2022-11-17T22:18:14.258Z,8.27
2022-11-17T22:23:07.624Z,8.22
2022-11-17T22:27:58.249Z,8.22
2022-11-17T22:32:49.495Z,8.14
2022-11-17T22:37:39.711Z,8.14
2022-11-17T22:42:33.058Z,8.11
2022-11-17T22:47:23.874Z,8.11
2022-11-17T22:52:16.240Z,8.06
2022-11-17T22:57:07.013Z,8.07
2022-11-17T23:02:01.451Z,8.06
2022-11-17T23:06:54.000Z,8.04
2022-11-17T23:11:45.090Z,8.02
2022-11-17T23:16:39.474Z,7.99
2022-11-17T23:21:33.861Z,7.97
2022-11-17T23:26:24.568Z,7.94
2022-11-17T23:31:15.799Z,7.93
2022-11-17T23:36:08.284Z,7.90
2022-11-17T23:41:07.983Z,7.86
2022-11-17T23:45:58.515Z,7.86
2022-11-17T23:50:48.863Z,7.82
2022-11-17T23:55:39.112Z,7.76
